Time;durP1;ratioP1;P1;durP2;ratioP2;P2;SDS_P1;SDS_P2;PMS_P1;PMS_P2;Temp;Humidity;BMP_temperature;BMP_pressure;BME280_temperature;BME280_humidity;BME280_pressure;Samples;Min_cycle;Max_cycle;Signal;HPM_P1;HPM_P2
2022/05/26 00:01:15;;;;;;;4.93;1.73;;;17.50;74.30;;;;;;5027287;28;20363;-79
2022/05/26 00:03:43;;;;;;;5.88;1.23;;;17.50;74.50;;;;;;5027894;28;20030;-78
2022/05/26 00:06:13;;;;;;;3.40;0.77;;;17.60;74.70;;;;;;5012126;28;20041;-79
2022/05/26 00:08:39;;;;;;;3.08;0.70;;;17.40;75.50;;;;;;5012177;28;20026;-80
2022/05/26 00:11:12;;;;;;;6.30;0.63;;;17.40;76.00;;;;;;5012181;28;20057;-79
2022/05/26 00:13:40;;;;;;;2.38;0.75;;;17.40;76.50;;;;;;5011752;28;20026;-79
2022/05/26 00:16:06;;;;;;;1.45;0.80;;;17.50;76.70;;;;;;5010574;28;20034;-78
2022/05/26 00:18:32;;;;;;;7.20;1.13;;;17.40;77.00;;;;;;5012272;28;20124;-77
2022/05/26 00:20:57;;;;;;;2.58;0.80;;;17.40;77.40;;;;;;5011493;28;20111;-78
2022/05/26 00:23:23;;;;;;;2.72;1.08;;;17.40;77.50;;;;;;5011471;28;20038;-77
2022/05/26 00:25:49;;;;;;;4.05;1.23;;;17.40;77.40;;;;;;5011598;28;20045;-80
2022/05/26 00:28:15;;;;;;;5.72;1.00;;;17.40;78.30;;;;;;5011998;28;20022;-80
2022/05/26 00:30:41;;;;;;;1.45;0.90;;;17.30;78.40;;;;;;5010948;28;20391;-80
2022/05/26 00:33:08;;;;;;;5.43;0.90;;;17.40;78.70;;;;;;5011491;28;20524;-78
2022/05/26 00:35:35;;;;;;;2.42;0.80;;;17.40;78.70;;;;;;5011680;28;20030;-79
2022/05/26 00:38:04;;;;;;;1.80;0.88;;;17.30;80.70;;;;;;5011644;28;20030;-80
2022/05/26 00:40:31;;;;;;;4.60;0.88;;;17.20;82.90;;;;;;5011412;28;20144;-79
2022/05/26 00:42:57;;;;;;;4.57;0.82;;;17.10;84.70;;;;;;5026776;28;20117;-79
2022/05/26 00:45:24;;;;;;;0.80;0.52;;;17.00;86.70;;;;;;5011863;28;20034;-78
2022/05/26 00:47:49;;;;;;;10.63;1.60;;;17.00;87.90;;;;;;5011286;28;20049;-80
2022/05/26 00:50:25;;;;;;;1.75;0.90;;;16.90;88.60;;;;;;5009611;28;20471;-77
2022/05/26 00:52:59;;;;;;;6.15;1.05;;;16.90;90.10;;;;;;5010292;28;20030;-80
2022/05/26 00:55:31;;;;;;;5.72;0.95;;;16.80;90.50;;;;;;5010276;28;20119;-76
2022/05/26 00:58:17;;;;;;;4.13;0.70;;;16.70;91.20;;;;;;5010969;28;20026;-80
2022/05/26 01:00:43;;;;;;;9.68;1.73;;;16.80;91.40;;;;;;5009969;28;20033;-76
2022/05/26 01:03:34;;;;;;;4.63;1.08;;;16.70;91.50;;;;;;5011629;28;20026;-80
2022/05/26 01:06:12;;;;;;;2.90;0.80;;;16.70;91.60;;;;;;5011001;28;20034;-81
2022/05/26 01:08:48;;;;;;;4.15;0.85;;;16.70;92.10;;;;;;5011449;28;20034;-79
2022/05/26 01:11:14;;;;;;;7.72;1.25;;;16.80;91.70;;;;;;5011268;28;20034;-80
2022/05/26 01:13:50;;;;;;;4.47;1.63;;;16.80;91.80;;;;;;5010853;28;20322;-79
2022/05/26 01:16:59;;;;;;;1.40;1.00;;;16.90;91.30;;;;;;5010869;28;20037;-80
2022/05/26 01:20:02;;;;;;;3.78;1.52;;;17.00;91.50;;;;;;5010666;28;20036;-79
2022/05/26 01:22:55;;;;;;;1.75;1.10;;;16.80;91.90;;;;;;5010946;28;20033;-79
2022/05/26 01:25:57;;;;;;;4.40;1.30;;;16.80;91.80;;;;;;5010525;28;20622;-80
2022/05/26 01:28:33;;;;;;;2.38;1.15;;;16.80;91.60;;;;;;5010758;28;20104;-81
2022/05/26 01:31:24;;;;;;;4.03;1.52;;;17.00;91.40;;;;;;5010864;28;20104;-80
2022/05/26 01:34:22;;;;;;;5.93;2.08;;;16.90;91.40;;;;;;5026079;28;20036;-78
2022/05/26 01:36:53;;;;;;;5.40;1.60;;;16.90;91.50;;;;;;5026950;28;20126;-79
2022/05/26 01:39:30;;;;;;;3.42;1.10;;;16.90;91.30;;;;;;5030823;28;20018;-78
2022/05/26 01:42:04;;;;;;;9.88;1.52;;;16.90;91.30;;;;;;5030303;28;20471;-78
2022/05/26 01:44:42;;;;;;;2.63;1.55;;;16.80;91.50;;;;;;5030274;28;20034;-78
2022/05/26 01:47:28;;;;;;;;;;;16.80;91.40;;;;;;5030732;28;20038;-78
2022/05/26 01:50:05;;;;;;;6.10;1.48;;;16.80;91.60;;;;;;5030515;28;20271;-78
2022/05/26 01:52:52;;;;;;;3.63;1.60;;;16.60;91.90;;;;;;5030134;28;20029;-78
2022/05/26 01:55:25;;;;;;;2.80;1.55;;;16.70;91.70;;;;;;5030007;28;20030;-77
2022/05/26 01:58:06;;;;;;;4.35;1.40;;;16.80;91.70;;;;;;5029386;28;20036;-79
2022/05/26 02:00:32;;;;;;;5.20;1.80;;;16.70;91.70;;;;;;5031899;28;20113;-80
2022/05/26 02:03:11;;;;;;;4.28;1.67;;;16.70;91.90;;;;;;5033052;28;20077;-78
2022/05/26 02:05:47;;;;;;;3.42;1.50;;;16.70;91.60;;;;;;5033854;28;20072;-79
2022/05/26 02:08:56;;;;;;;5.95;1.70;;;16.80;91.60;;;;;;5034036;28;20033;-80
2022/05/26 02:11:23;;;;;;;4.20;1.55;;;16.80;91.60;;;;;;5016581;28;20029;-78
2022/05/26 02:14:00;;;;;;;5.60;1.80;;;16.80;91.40;;;;;;5033943;28;20120;-79
2022/05/26 02:16:29;;;;;;;3.70;1.63;;;16.80;91.40;;;;;;5033972;28;20049;-80
2022/05/26 02:19:30;;;;;;;3.03;1.80;;;16.80;91.50;;;;;;5033694;28;20028;-78
2022/05/26 02:22:09;;;;;;;3.53;1.60;;;16.90;91.30;;;;;;5029997;28;20060;-80
2022/05/26 02:24:45;;;;;;;3.45;2.00;;;16.90;91.30;;;;;;5034182;28;20030;-77
2022/05/26 02:27:11;;;;;;;5.70;2.33;;;16.90;91.40;;;;;;5033672;28;20367;-79
2022/05/26 02:29:52;;;;;;;7.22;1.90;;;16.80;91.60;;;;;;5032319;28;20030;-80
2022/05/26 02:32:32;;;;;;;3.85;1.80;;;16.80;91.80;;;;;;5033521;28;20030;-81
2022/05/26 02:35:04;;;;;;;5.97;2.05;;;16.80;91.60;;;;;;5032319;28;20060;-80
2022/05/26 02:37:32;;;;;;;4.13;1.80;;;16.90;91.70;;;;;;5033617;28;20055;-79
2022/05/26 02:39:57;;;;;;;5.38;2.00;;;16.90;91.50;;;;;;5033851;28;20274;-80
2022/05/26 02:42:24;;;;;;;7.80;2.20;;;16.90;91.70;;;;;;5033809;28;20050;-79
2022/05/26 02:44:51;;;;;;;3.53;1.90;;;16.90;91.80;;;;;;5033558;28;20478;-78
2022/05/26 02:47:35;;;;;;;3.88;1.90;;;16.90;91.90;;;;;;5032213;28;20179;-78
2022/05/26 02:50:24;;;;;;;3.30;1.73;;;16.80;92.00;;;;;;5033200;28;20040;-79
2022/05/26 02:53:08;;;;;;;5.90;2.00;;;16.80;92.20;;;;;;5032284;28;20052;-77
2022/05/26 02:56:02;;;;;;;4.60;1.67;;;16.60;92.60;;;;;;5033196;28;20021;-80
2022/05/26 02:58:40;;;;;;;4.68;1.63;;;16.60;92.70;;;;;;5033023;28;20284;-81
2022/05/26 03:01:35;;;;;;;3.95;2.03;;;16.60;93.00;;;;;;5033266;28;20034;-77
2022/05/26 03:04:15;;;;;;;5.03;2.20;;;16.70;92.80;;;;;;5032965;28;20171;-79
2022/05/26 03:06:54;;;;;;;4.38;2.25;;;16.70;92.90;;;;;;5032126;28;20397;-77
2022/05/26 03:09:21;;;;;;;5.25;2.08;;;16.70;92.70;;;;;;5033237;28;20057;-80
2022/05/26 03:11:52;;;;;;;4.63;2.08;;;16.80;92.80;;;;;;5032007;28;20053;-78
2022/05/26 03:14:19;;;;;;;4.57;2.15;;;16.70;93.00;;;;;;5032729;28;20029;-78
2022/05/26 03:16:45;;;;;;;9.57;2.55;;;16.80;92.80;;;;;;5032586;28;20030;-80
2022/05/26 03:19:11;;;;;;;5.07;2.40;;;16.70;92.90;;;;;;5032453;28;20026;-80
2022/05/26 03:21:38;;;;;;;4.60;2.47;;;16.80;92.90;;;;;;5033126;28;20025;-77
2022/05/26 03:24:05;;;;;;;5.07;2.55;;;16.80;93.00;;;;;;5032450;28;20026;-79
2022/05/26 03:26:30;;;;;;;4.60;2.67;;;16.70;93.10;;;;;;5032419;28;20129;-78
2022/05/26 03:28:56;;;;;;;4.57;2.78;;;16.70;93.20;;;;;;5032381;28;20159;-77
2022/05/26 03:31:21;;;;;;;4.13;2.67;;;16.60;93.30;;;;;;5032273;28;20098;-80
2022/05/26 03:42:00;;;;;;;8.32;3.35;;;16.90;93.10;;;;;;5032182;28;20064;-78
2022/05/26 03:44:28;;;;;;;5.93;3.78;;;16.70;93.30;;;;;;5032203;28;20455;-79
2022/05/26 03:46:57;;;;;;;9.23;3.17;;;16.70;93.10;;;;;;5032305;28;20050;-80
2022/05/26 03:49:22;;;;;;;6.28;3.40;;;16.80;93.20;;;;;;5031998;28;20029;-79
2022/05/26 03:51:48;;;;;;;5.32;3.67;;;16.90;93.50;;;;;;5032082;28;20505;-79
2022/05/26 03:54:14;;;;;;;5.13;3.70;;;16.80;93.30;;;;;;5032405;28;20034;-78
2022/05/26 03:56:40;;;;;;;7.72;4.15;;;16.80;93.30;;;;;;5031955;28;20072;-80
2022/05/26 03:59:05;;;;;;;5.80;4.63;;;16.70;94.30;;;;;;5032042;28;20175;-81
2022/05/26 04:01:31;;;;;;;7.80;4.97;;;16.70;94.90;;;;;;5031640;28;20026;-78
2022/05/26 04:03:57;;;;;;;12.00;4.40;;;16.70;95.30;;;;;;5031626;28;20030;-81
2022/05/26 04:06:23;;;;;;;9.73;5.05;;;16.70;95.60;;;;;;5030915;28;20477;-80
2022/05/26 04:08:49;;;;;;;11.82;4.88;;;16.60;96.10;;;;;;5031910;28;20026;-78
2022/05/26 04:11:15;;;;;;;5.57;4.90;;;16.60;96.60;;;;;;5031532;28;20021;-80
2022/05/26 04:13:41;;;;;;;7.28;5.50;;;16.30;97.60;;;;;;5031225;28;20454;-79
2022/05/26 04:16:07;;;;;;;8.02;5.07;;;16.30;97.70;;;;;;5030397;28;20045;-80
2022/05/26 04:18:33;;;;;;;9.68;5.20;;;16.40;97.80;;;;;;5031796;28;20741;-80
2022/05/26 04:21:11;;;;;;;9.98;5.47;;;16.50;97.60;;;;;;5031532;28;20048;-81
2022/05/26 04:23:37;;;;;;;;;;;16.40;98.10;;;;;;5031148;28;20124;-79
2022/05/26 04:26:05;;;;;;;12.85;6.07;;;16.40;97.90;;;;;;5030228;28;19921;-79
2022/05/26 04:28:32;;;;;;;14.25;5.72;;;16.30;98.10;;;;;;5031348;28;20030;-80
2022/05/26 04:30:57;;;;;;;7.88;5.88;;;16.40;98.10;;;;;;5031217;28;20080;-80
2022/05/26 04:33:23;;;;;;;10.85;6.38;;;16.30;98.20;;;;;;5030603;28;20057;-79
2022/05/26 04:35:49;;;;;;;10.48;6.45;;;16.20;98.80;;;;;;5030102;28;20033;-80
2022/05/26 04:38:15;;;;;;;10.00;6.75;;;16.00;98.90;;;;;;5031141;28;20033;-79
2022/05/26 04:40:41;;;;;;;10.70;5.82;;;16.10;99.20;;;;;;5030934;28;20056;-79
2022/05/26 04:43:07;;;;;;;10.95;5.85;;;16.20;98.90;;;;;;5031180;28;20510;-81
2022/05/26 04:45:33;;;;;;;7.75;6.18;;;16.20;99.10;;;;;;5030406;28;20037;-78
2022/05/26 04:47:59;;;;;;;9.73;5.18;;;16.00;99.40;;;;;;5029961;28;20087;-78
2022/05/26 04:50:25;;;;;;;8.13;5.10;;;16.00;99.60;;;;;;5030873;28;20112;-79
2022/05/26 04:52:51;;;;;;;9.73;5.75;;;16.00;99.70;;;;;;5030797;28;20049;-81
2022/05/26 04:55:17;;;;;;;8.77;4.82;;;16.10;99.30;;;;;;5031136;28;20056;-81
2022/05/26 04:57:43;;;;;;;5.90;4.25;;;16.20;99.20;;;;;;5030604;28;20034;-80
2022/05/26 05:00:13;;;;;;;11.50;4.45;;;16.20;99.60;;;;;;5029788;28;20041;-80
2022/05/26 05:02:39;;;;;;;9.57;4.43;;;16.00;99.40;;;;;;5030095;28;20482;-80
2022/05/26 05:05:06;;;;;;;7.88;3.88;;;16.00;99.70;;;;;;5029514;28;20037;-79
2022/05/26 05:07:32;;;;;;;7.72;3.63;;;16.00;99.70;;;;;;5030787;28;20079;-79
2022/05/26 05:09:58;;;;;;;6.50;4.38;;;16.10;99.40;;;;;;5030317;28;20033;-79
2022/05/26 05:12:24;;;;;;;6.90;3.65;;;16.20;99.60;;;;;;5031213;28;20033;-80
2022/05/26 05:14:53;;;;;;;9.98;4.63;;;16.20;99.50;;;;;;5029297;28;20026;-79
2022/05/26 05:17:21;;;;;;;6.38;3.35;;;16.30;99.20;;;;;;5030594;28;20108;-81
2022/05/26 05:19:48;;;;;;;6.38;3.85;;;16.30;99.30;;;;;;5030199;28;20021;-81
2022/05/26 05:22:16;;;;;;;8.02;3.08;;;16.30;99.50;;;;;;5030595;28;20029;-80
2022/05/26 05:24:56;;;;;;;8.77;3.88;;;16.40;99.40;;;;;;5029931;28;20029;-81
2022/05/26 05:27:43;;;;;;;7.47;3.80;;;16.40;99.50;;;;;;5030288;28;20052;-79
2022/05/26 05:30:19;;;;;;;6.53;3.20;;;16.50;99.30;;;;;;5030593;28;20041;-81
2022/05/26 05:32:50;;;;;;;10.35;3.60;;;16.50;99.10;;;;;;5029855;28;20029;-81
2022/05/26 05:35:21;;;;;;;6.45;3.92;;;16.70;98.90;;;;;;5029582;28;20180;-79
2022/05/26 05:37:47;;;;;;;9.50;3.70;;;16.80;98.90;;;;;;5030315;28;20080;-81
2022/05/26 05:40:13;;;;;;;5.55;4.00;;;16.80;98.70;;;;;;5030154;28;20033;-79
2022/05/26 05:42:39;;;;;;;6.35;4.20;;;16.80;98.70;;;;;;5030491;28;20033;-77
2022/05/26 05:45:06;;;;;;;10.02;3.80;;;16.90;98.80;;;;;;5029110;28;20051;-78
2022/05/26 05:47:31;;;;;;;7.15;4.85;;;16.80;98.80;;;;;;5028900;28;20371;-78
2022/05/26 05:49:57;;;;;;;8.60;4.88;;;16.60;99.10;;;;;;5029079;28;20034;-82
2022/05/26 05:52:23;;;;;;;8.05;4.10;;;16.70;99.00;;;;;;5029858;28;20038;-79
2022/05/26 05:54:50;;;;;;;6.53;4.18;;;16.80;98.90;;;;;;5028681;28;20033;-82
2022/05/26 05:57:16;;;;;;;12.48;5.25;;;16.70;99.00;;;;;;5029723;28;20022;-80
2022/05/26 05:59:41;;;;;;;11.52;5.10;;;16.70;98.90;;;;;;5030282;28;20362;-80
2022/05/26 06:02:08;;;;;;;9.60;5.38;;;16.60;99.10;;;;;;5028232;28;20028;-80
2022/05/26 06:04:41;;;;;;;8.93;4.50;;;16.60;99.50;;;;;;5030108;28;20052;-81
2022/05/26 06:07:13;;;;;;;6.82;4.45;;;16.60;99.40;;;;;;5029872;28;20037;-79
2022/05/26 06:09:39;;;;;;;9.45;4.30;;;16.80;99.20;;;;;;5030386;28;20079;-82
2022/05/26 06:12:05;;;;;;;10.80;4.68;;;17.00;99.00;;;;;;5029839;28;20514;-80
2022/05/26 06:14:31;;;;;;;8.77;4.38;;;17.10;98.80;;;;;;5028704;28;20037;-80
2022/05/26 06:16:57;;;;;;;9.50;4.55;;;17.30;98.50;;;;;;5029995;28;20038;-80
2022/05/26 06:19:22;;;;;;;7.93;4.82;;;17.10;98.30;;;;;;5029970;28;20041;-80
2022/05/26 06:21:48;;;;;;;9.90;4.25;;;17.40;98.20;;;;;;5030187;28;20095;-79
2022/05/26 06:24:13;;;;;;;6.85;3.95;;;17.40;98.20;;;;;;5030298;28;20087;-82
2022/05/26 06:26:39;;;;;;;9.82;4.68;;;17.30;98.20;;;;;;5030027;28;20025;-81
2022/05/26 06:37:27;;;;;;;9.70;5.72;;;17.40;98.00;;;;;;5030675;28;20086;-81
2022/05/26 06:39:54;;;;;;;8.02;5.28;;;17.40;97.90;;;;;;5029583;28;20078;-81
2022/05/26 06:42:19;;;;;;;19.25;6.53;;;17.40;98.10;;;;;;5030357;28;20489;-80
2022/05/26 06:44:45;;;;;;;14.25;5.15;;;17.40;97.80;;;;;;5029609;28;20163;-80
2022/05/26 06:47:19;;;;;;;12.68;5.78;;;17.50;97.80;;;;;;5030251;28;20124;-81
2022/05/26 06:49:45;;;;;;;13.23;6.55;;;17.50;97.80;;;;;;5032068;28;20033;-80
2022/05/26 06:52:12;;;;;;;17.45;6.30;;;17.60;97.60;;;;;;5032314;28;20376;-79
2022/05/26 06:54:41;;;;;;;8.75;5.35;;;17.70;97.70;;;;;;5032281;28;20464;-78
2022/05/26 06:57:07;;;;;;;15.40;5.43;;;17.70;97.50;;;;;;5033050;28;20470;-77
2022/05/26 06:59:34;;;;;;;12.07;5.05;;;17.80;97.50;;;;;;5031879;28;20045;-79
2022/05/26 07:01:59;;;;;;;17.27;6.45;;;18.00;97.40;;;;;;5032803;28;20026;-84
2022/05/26 07:04:25;;;;;;;10.82;5.75;;;18.00;96.90;;;;;;5032823;28;20029;-82
2022/05/26 07:06:53;;;;;;;12.93;5.60;;;18.00;97.00;;;;;;5032805;28;20025;-79
2022/05/26 07:09:20;;;;;;;14.02;5.13;;;18.00;96.60;;;;;;5032441;28;20040;-82
2022/05/26 07:11:45;;;;;;;10.90;4.97;;;18.00;96.70;;;;;;5033232;28;20366;-81
2022/05/26 07:14:13;;;;;;;15.98;5.15;;;18.10;96.70;;;;;;5032428;28;20030;-79
2022/05/26 07:16:39;;;;;;;15.20;6.57;;;18.10;96.50;;;;;;5033104;28;20043;-78
2022/05/26 07:19:05;;;;;;;9.60;5.15;;;18.30;96.40;;;;;;5031749;28;20048;-82
2022/05/26 07:21:31;;;;;;;13.45;5.78;;;18.30;96.50;;;;;;5033625;28;20026;-83
2022/05/26 07:23:57;;;;;;;14.82;7.18;;;18.40;96.40;;;;;;5033107;28;20076;-81
2022/05/26 07:26:24;;;;;;;12.32;6.13;;;18.30;96.60;;;;;;5032547;28;20092;-78
2022/05/26 07:28:51;;;;;;;16.00;6.90;;;18.10;97.20;;;;;;5032381;28;20025;-78
2022/05/26 07:31:18;;;;;;;17.13;7.78;;;18.00;97.20;;;;;;5032514;28;20045;-76
2022/05/26 07:33:44;;;;;;;13.20;6.05;;;17.80;97.40;;;;;;5032272;28;20026;-74
2022/05/26 07:41:16;;;;;;;11.65;6.30;;;17.80;97.80;;;;;;5032528;28;20447;-77
2022/05/26 07:41:43;;;;;;;12.77;6.15;;;18.10;97.20;;;;;;5032206;28;20083;-80
2022/05/26 07:44:09;;;;;;;12.25;6.45;;;18.00;97.20;;;;;;5032501;28;20037;-82
2022/05/26 07:46:35;;;;;;;11.50;6.43;;;18.00;96.90;;;;;;5032305;28;20056;-81
2022/05/26 07:49:01;;;;;;;14.23;6.20;;;17.90;96.50;;;;;;5033253;28;20025;-83
2022/05/26 07:51:26;;;;;;;12.05;5.15;;;17.90;96.70;;;;;;5031896;28;20025;-80
2022/05/26 07:53:52;;;;;;;12.98;4.90;;;17.80;96.20;;;;;;5032523;28;20430;-77
2022/05/26 07:56:20;;;;;;;13.10;4.30;;;17.70;96.20;;;;;;5032303;28;20490;-80
2022/05/26 07:58:47;;;;;;;;;;;17.70;96.10;;;;;;5032119;28;20466;-78
2022/05/26 08:01:13;;;;;;;10.98;4.40;;;17.70;96.10;;;;;;5032244;28;19928;-77
2022/05/26 08:03:39;;;;;;;10.63;4.32;;;17.50;96.20;;;;;;5032361;28;20025;-76
2022/05/26 08:06:06;;;;;;;7.45;3.55;;;17.50;96.10;;;;;;5031804;28;20087;-83
2022/05/26 08:08:33;;;;;;;15.70;4.45;;;17.30;95.70;;;;;;5030705;28;20083;-79
2022/05/26 08:10:58;;;;;;;10.77;4.55;;;17.20;95.60;;;;;;5031816;28;20029;-78
2022/05/26 08:13:24;;;;;;;12.35;4.75;;;17.20;95.60;;;;;;5031453;28;20443;-79
2022/05/26 08:15:50;;;;;;;10.65;4.57;;;17.50;96.00;;;;;;5031673;28;20416;-80
2022/05/26 08:18:16;;;;;;;14.85;4.28;;;18.20;95.70;;;;;;5031917;28;20022;-78
2022/05/26 08:20:42;;;;;;;12.25;4.15;;;19.20;94.00;;;;;;5031790;28;20037;-77
2022/05/26 08:23:08;;;;;;;13.60;4.57;;;19.50;93.00;;;;;;5030667;28;20026;-80
2022/05/26 08:25:34;;;;;;;12.23;4.35;;;20.00;93.00;;;;;;5030037;28;20050;-73
2022/05/26 08:27:59;;;;;;;12.32;3.80;;;20.80;91.80;;;;;;5031740;28;20045;-73
2022/05/26 08:30:25;;;;;;;10.63;3.35;;;21.50;90.70;;;;;;5031749;28;20057;-74
2022/05/26 08:32:53;;;;;;;7.90;3.20;;;21.70;89.00;;;;;;5031231;28;20048;-72
2022/05/26 08:35:19;;;;;;;8.10;2.78;;;22.00;86.30;;;;;;5028261;28;20367;-72
2022/05/26 08:37:44;;;;;;;8.48;2.58;;;22.40;85.80;;;;;;5031708;28;20025;-73
2022/05/26 08:40:36;;;;;;;6.72;2.45;;;22.80;82.80;;;;;;5031451;28;20091;-73
2022/05/26 08:43:04;;;;;;;7.55;2.58;;;22.90;81.50;;;;;;5031859;28;20384;-73
2022/05/26 08:45:33;;;;;;;7.72;2.20;;;22.70;79.20;;;;;;5031711;28;20423;-73
2022/05/26 08:47:59;;;;;;;7.05;2.42;;;22.50;77.90;;;;;;5031476;28;20279;-74
2022/05/26 08:50:29;;;;;;;6.13;2.22;;;22.80;77.40;;;;;;5030931;28;20026;-74
2022/05/26 08:53:03;;;;;;;7.22;2.05;;;22.90;76.00;;;;;;5030939;28;20041;-74
2022/05/26 08:55:39;;;;;;;9.63;2.47;;;23.50;77.90;;;;;;5031045;28;20095;-73
2022/05/26 08:58:14;;;;;;;5.68;2.20;;;23.90;74.80;;;;;;5030033;28;20025;-74
2022/05/26 09:00:41;;;;;;;7.03;2.20;;;24.00;72.60;;;;;;5031439;28;20040;-74
2022/05/26 09:03:28;;;;;;;12.82;2.60;;;24.20;72.20;;;;;;5030005;28;20314;-78
2022/05/26 09:06:05;;;;;;;11.90;2.58;;;24.40;71.40;;;;;;5030616;28;20129;-74
2022/05/26 09:14:24;;;;;;;5.40;1.90;;;23.90;70.90;;;;;;5030977;28;20117;-75
2022/05/26 09:17:04;;;;;;;8.25;2.10;;;22.80;70.80;;;;;;5030734;28;20026;-73
2022/05/26 09:19:48;;;;;;;8.55;1.63;;;22.10;72.90;;;;;;5030448;28;20511;-77
2022/05/26 09:22:27;;;;;;;5.22;2.10;;;21.90;73.60;;;;;;5029676;28;20203;-76
2022/05/26 09:24:53;;;;;;;5.35;1.80;;;21.60;74.70;;;;;;5030860;28;20036;-74
2022/05/26 09:27:37;;;;;;;5.18;1.55;;;21.80;73.40;;;;;;5031092;28;20033;-75
2022/05/26 09:30:25;;;;;;;8.38;1.55;;;21.60;72.10;;;;;;5030495;28;20022;-73
2022/05/26 09:32:51;;;;;;;2.80;1.40;;;21.30;71.90;;;;;;5029447;28;20040;-72
2022/05/26 09:35:20;;;;;;;7.65;1.98;;;21.40;71.20;;;;;;5028968;28;20137;-72
2022/05/26 09:37:49;;;;;;;4.55;1.77;;;20.90;71.90;;;;;;5029514;28;20030;-75
2022/05/26 09:40:27;;;;;;;10.40;1.80;;;21.00;73.90;;;;;;5029432;28;20356;-77
2022/05/26 09:43:09;;;;;;;7.07;2.42;;;21.50;73.00;;;;;;5030620;28;20108;-76
2022/05/26 09:45:41;;;;;;;7.45;2.33;;;21.70;73.70;;;;;;5031061;28;20053;-83
2022/05/26 09:48:18;;;;;;;7.57;1.83;;;21.40;74.10;;;;;;5030408;28;20072;-74
2022/05/26 09:51:14;;;;;;;9.00;2.37;;;21.50;74.60;;;;;;5030160;28;20360;-77
2022/05/26 09:53:45;;;;;;;7.17;2.17;;;21.90;75.10;;;;;;5030917;28;20029;-76
2022/05/26 09:56:26;;;;;;;8.00;2.10;;;22.00;73.40;;;;;;5030392;28;20037;-80
2022/05/26 09:58:52;;;;;;;6.93;2.10;;;22.20;73.90;;;;;;5030588;28;20029;-76
2022/05/26 10:01:23;;;;;;;4.18;1.95;;;22.30;73.00;;;;;;5029280;28;20041;-73
2022/05/26 10:04:25;;;;;;;9.23;1.70;;;22.10;73.10;;;;;;5029975;28;20037;-73
2022/05/26 10:07:31;;;;;;;6.43;1.65;;;22.60;72.50;;;;;;5029814;28;20057;-76
2022/05/26 10:10:14;;;;;;;10.05;2.03;;;22.50;71.90;;;;;;5029906;28;20033;-75
2022/05/26 10:12:58;;;;;;;9.77;2.15;;;22.20;71.90;;;;;;5030461;28;20102;-73
2022/05/26 10:15:33;;;;;;;6.53;1.83;;;22.10;71.40;;;;;;5028930;28;20170;-74
2022/05/26 10:18:20;;;;;;;5.13;1.65;;;22.40;72.00;;;;;;5030003;28;20393;-74
2022/05/26 10:20:59;;;;;;;;;;;22.40;70.50;;;;;;5030617;28;20137;-75
2022/05/26 10:24:22;;;;;;;6.68;1.58;;;22.00;71.60;;;;;;5033498;28;20376;-81
2022/05/26 10:27:14;;;;;;;6.53;1.77;;;21.90;70.50;;;;;;5048376;28;20040;-73
2022/05/26 10:29:51;;;;;;;4.85;1.40;;;22.40;70.10;;;;;;5037702;28;20026;-72
2022/05/26 10:32:32;;;;;;;5.38;1.90;;;22.40;69.90;;;;;;5033597;28;20026;-74
2022/05/26 10:35:01;;;;;;;5.90;1.38;;;22.20;69.80;;;;;;5032536;28;20037;-72
2022/05/26 10:37:43;;;;;;;7.20;1.35;;;21.00;70.00;;;;;;5033476;28;20030;-73
2022/05/26 10:40:21;;;;;;;7.22;1.83;;;20.80;70.90;;;;;;5033493;28;20029;-73
2022/05/26 10:42:56;;;;;;;16.20;2.00;;;20.80;71.00;;;;;;5033206;28;20451;-73
2022/05/26 10:45:39;;;;;;;7.10;1.80;;;21.00;71.20;;;;;;5034119;28;20039;-73
2022/05/26 10:48:43;;;;;;;7.88;1.73;;;21.10;71.90;;;;;;5032150;28;20033;-72
2022/05/26 10:51:16;;;;;;;10.05;1.83;;;21.30;72.40;;;;;;5033546;28;20387;-72
2022/05/26 10:53:51;;;;;;;6.22;1.83;;;20.90;72.80;;;;;;5033033;28;20032;-72
2022/05/26 10:56:36;;;;;;;5.35;1.63;;;20.70;72.90;;;;;;5031945;28;20034;-72
2022/05/26 10:59:14;;;;;;;7.20;1.73;;;20.60;73.60;;;;;;5032981;28;20164;-74
2022/05/26 11:01:45;;;;;;;10.25;1.95;;;20.70;73.70;;;;;;5032171;28;20086;-71
2022/05/26 11:04:35;;;;;;;3.17;1.42;;;20.80;73.70;;;;;;5033278;28;20044;-73
2022/05/26 11:07:05;;;;;;;12.38;1.88;;;20.70;73.20;;;;;;5031741;28;20379;-74
2022/05/26 11:09:55;;;;;;;7.32;1.58;;;20.70;73.50;;;;;;5033615;28;20393;-78
2022/05/26 11:12:30;;;;;;;5.82;1.85;;;20.70;73.50;;;;;;5031735;28;20112;-77
2022/05/26 11:18:00;;;;;;;4.65;1.60;;;21.40;73.30;;;;;;5032642;28;20045;-71
2022/05/26 11:20:53;;;;;;;7.50;1.70;;;21.40;72.40;;;;;;5031218;28;20037;-73
2022/05/26 11:23:20;;;;;;;5.75;2.00;;;21.40;71.70;;;;;;5031575;28;20044;-72
2022/05/26 11:26:05;;;;;;;6.67;2.20;;;21.40;71.80;;;;;;5032569;28;20033;-72
2022/05/26 11:28:54;;;;;;;5.68;1.60;;;21.50;71.60;;;;;;5032520;28;20021;-73
2022/05/26 11:37:28;;;;;;;11.93;2.20;;;21.50;71.40;;;;;;5032314;28;20297;-75
2022/05/26 11:39:58;;;;;;;8.35;2.10;;;21.50;71.90;;;;;;5031962;28;20147;-72
2022/05/26 11:42:28;;;;;;;15.23;2.42;;;21.50;72.00;;;;;;5032837;28;20458;-74
2022/05/26 11:45:10;;;;;;;6.13;1.80;;;21.60;71.70;;;;;;5031895;28;20040;-75
2022/05/26 11:48:01;;;;;;;8.18;1.80;;;21.30;72.40;;;;;;5031015;28;20029;-74
2022/05/26 11:51:10;;;;;;;7.82;2.17;;;21.40;72.50;;;;;;5031926;28;20036;-75
2022/05/26 11:53:43;;;;;;;8.50;2.03;;;21.40;72.60;;;;;;5029735;28;20176;-76
2022/05/26 11:56:28;;;;;;;6.50;2.00;;;21.50;72.90;;;;;;5028523;28;20038;-74
2022/05/26 11:59:20;;;;;;;8.10;2.13;;;21.70;72.60;;;;;;5031925;28;20116;-74
2022/05/26 12:02:14;;;;;;;3.42;1.17;;;21.70;72.60;;;;;;5031600;28;20504;-73
2022/05/26 12:04:45;;;;;;;8.20;1.75;;;21.60;71.20;;;;;;5031758;28;20029;-77
2022/05/26 12:07:18;;;;;;;7.53;1.27;;;21.80;70.40;;;;;;5031745;28;20042;-74
2022/05/26 12:09:49;;;;;;;6.82;1.58;;;22.20;69.50;;;;;;5032357;28;20041;-81
2022/05/26 12:12:21;;;;;;;2.83;0.93;;;22.10;69.30;;;;;;5031504;28;20024;-71
2022/05/26 12:14:46;;;;;;;6.68;1.73;;;22.10;68.40;;;;;;5031766;28;20499;-74
2022/05/26 12:17:30;;;;;;;5.70;1.48;;;21.90;68.10;;;;;;5031618;28;20048;-75
2022/05/26 12:20:15;;;;;;;8.07;2.25;;;21.80;68.30;;;;;;5031744;28;20584;-78
2022/05/26 12:22:50;;;;;;;10.35;1.83;;;21.40;69.20;;;;;;5030441;28;20112;-81
2022/05/26 12:25:21;;;;;;;7.25;1.40;;;21.60;69.50;;;;;;5031507;28;20025;-78
2022/05/26 12:27:55;;;;;;;5.70;1.50;;;21.60;69.60;;;;;;5028395;28;20029;-76
2022/05/26 12:30:37;;;;;;;4.03;1.52;;;21.50;70.10;;;;;;5031437;28;20509;-76
2022/05/26 12:33:20;;;;;;;6.28;1.58;;;21.40;68.40;;;;;;5030831;28;20030;-76
2022/05/26 12:36:08;;;;;;;7.13;1.73;;;21.30;69.90;;;;;;5031812;28;20033;-73
2022/05/26 12:39:14;;;;;;;10.77;1.60;;;21.60;69.00;;;;;;5031839;28;20558;-73
2022/05/26 12:42:03;;;;;;;4.05;1.35;;;21.80;68.90;;;;;;5030858;28;20057;-74
2022/05/26 12:44:42;;;;;;;6.03;1.23;;;21.70;68.30;;;;;;5029818;28;20037;-75
2022/05/26 12:47:20;;;;;;;4.97;0.77;;;21.50;68.20;;;;;;5031069;28;20261;-73
2022/05/26 12:49:54;;;;;;;5.78;1.23;;;21.70;67.60;;;;;;5031317;28;20037;-72
2022/05/26 12:52:39;;;;;;;5.15;1.27;;;21.50;68.40;;;;;;5031138;28;20052;-71
2022/05/26 12:55:32;;;;;;;9.07;1.00;;;21.60;68.50;;;;;;5029973;28;20038;-72
2022/05/26 12:58:26;;;;;;;6.70;1.60;;;21.40;68.60;;;;;;5030644;28;20064;-71
2022/05/26 13:00:54;;;;;;;4.93;1.17;;;21.10;69.10;;;;;;5030382;28;20272;-73
2022/05/26 13:03:48;;;;;;;5.57;1.17;;;21.00;69.70;;;;;;5032485;28;20018;-74
2022/05/26 13:06:21;;;;;;;4.60;1.45;;;20.80;70.40;;;;;;5031291;28;20034;-73
2022/05/26 13:09:08;;;;;;;4.85;1.02;;;20.90;71.30;;;;;;5030661;28;20021;-72
2022/05/26 13:11:41;;;;;;;8.73;1.67;;;21.00;71.60;;;;;;5031789;28;20034;-72
2022/05/26 13:14:15;;;;;;;11.50;1.83;;;20.80;72.60;;;;;;5030589;28;20037;-71
2022/05/26 13:16:41;;;;;;;6.40;1.52;;;20.70;72.00;;;;;;5031572;28;20037;-73
2022/05/26 13:19:11;;;;;;;5.13;1.23;;;20.60;72.70;;;;;;5031415;28;20040;-76
2022/05/26 13:21:38;;;;;;;7.13;1.35;;;20.70;72.30;;;;;;5032055;28;20026;-74
2022/05/26 13:24:04;;;;;;;5.10;1.50;;;20.70;72.30;;;;;;5030428;28;20513;-74
2022/05/26 13:26:31;;;;;;;4.78;1.35;;;20.90;72.20;;;;;;5030936;28;20057;-75
2022/05/26 13:29:00;;;;;;;5.32;1.25;;;21.00;71.90;;;;;;5031515;28;20378;-74
2022/05/26 13:34:13;;;;;;;3.38;1.05;;;21.20;71.50;;;;;;5030907;28;20036;-73
2022/05/26 13:36:47;;;;;;;7.20;1.73;;;21.10;71.50;;;;;;5031822;28;20029;-75
2022/05/26 13:39:16;;;;;;;7.50;1.83;;;21.10;71.50;;;;;;5031527;28;20034;-75
2022/05/26 13:41:45;;;;;;;6.38;1.67;;;21.20;71.50;;;;;;5030738;28;20049;-75
2022/05/26 13:44:40;;;;;;;5.05;1.60;;;21.20;71.30;;;;;;5012532;28;20180;-74
2022/05/26 13:47:08;;;;;;;5.05;1.38;;;21.20;71.20;;;;;;5011956;28;20038;-74
2022/05/26 13:49:39;;;;;;;5.03;1.48;;;21.20;70.40;;;;;;5011677;28;20091;-74
2022/05/26 13:52:09;;;;;;;2.85;1.05;;;20.90;70.80;;;;;;5011565;28;20041;-75
2022/05/26 13:54:53;;;;;;;3.08;1.23;;;20.70;71.70;;;;;;5011962;28;20040;-75